Time;durP1;ratioP1;P1;durP2;ratioP2;P2;SDS_P1;SDS_P2;PMS_P1;PMS_P2;Temp;Humidity;BMP_temperature;BMP_pressure;BME280_temperature;BME280_humidity;BME280_pressure;Samples;Min_cycle;Max_cycle;Signal;HPM_P1;HPM_P2
2021/08/25 00:02:10;;;;;;;1.08;0.77;;;23.20;55.00;;;;;;4995340;28;20503;-71
2021/08/25 00:04:41;;;;;;;1.45;0.70;;;23.20;54.80;;;;;;4995154;28;20034;-71
2021/08/25 00:07:08;;;;;;;2.35;0.80;;;23.20;55.00;;;;;;4995232;28;20069;-70
2021/08/25 00:09:38;;;;;;;0.75;0.68;;;23.20;54.50;;;;;;4995154;28;20434;-71
2021/08/25 00:12:05;;;;;;;2.55;0.98;;;23.30;54.50;;;;;;4994978;28;20022;-71
2021/08/25 00:14:32;;;;;;;2.03;0.90;;;23.20;55.40;;;;;;4994944;28;20486;-71
2021/08/25 00:16:57;;;;;;;0.70;0.70;;;23.10;57.10;;;;;;4995084;28;20042;-70
2021/08/25 00:19:23;;;;;;;1.70;0.82;;;23.10;56.70;;;;;;4994925;28;20038;-71
2021/08/25 00:21:49;;;;;;;3.35;0.90;;;23.10;54.50;;;;;;4994582;28;20383;-71
2021/08/25 00:24:14;;;;;;;2.00;0.75;;;23.10;54.90;;;;;;4994719;28;20050;-72
2021/08/25 00:26:40;;;;;;;1.17;0.80;;;23.10;55.00;;;;;;4994925;28;20037;-67
2021/08/25 00:29:06;;;;;;;0.77;0.77;;;23.10;55.10;;;;;;4994892;28;20030;-70
2021/08/25 00:31:31;;;;;;;1.40;0.68;;;23.10;55.40;;;;;;4994880;28;20037;-72
2021/08/25 00:34:00;;;;;;;1.65;0.70;;;23.10;54.90;;;;;;4994466;28;20042;-72
2021/08/25 00:36:26;;;;;;;1.45;0.60;;;23.10;54.30;;;;;;4994559;28;20364;-70
2021/08/25 00:38:51;;;;;;;1.63;0.60;;;23.20;63.40;;;;;;4994686;28;20110;-72
2021/08/25 00:41:17;;;;;;;0.70;0.60;;;23.20;66.80;;;;;;4994653;28;20042;-71
2021/08/25 00:43:42;;;;;;;1.98;0.70;;;23.10;54.10;;;;;;4994429;28;20102;-71
2021/08/25 00:46:08;;;;;;;2.80;0.50;;;23.10;54.80;;;;;;4994460;28;20034;-71
2021/08/25 00:48:34;;;;;;;1.45;0.50;;;23.10;54.50;;;;;;4994478;28;20037;-71
2021/08/25 00:51:00;;;;;;;2.33;0.50;;;23.10;56.50;;;;;;4994487;28;20383;-71
2021/08/25 00:53:25;;;;;;;1.02;0.60;;;23.00;54.70;;;;;;4994234;28;20030;-71
2021/08/25 00:55:52;;;;;;;4.57;0.50;;;23.10;55.20;;;;;;4993631;28;20122;-71
2021/08/25 00:58:18;;;;;;;0.88;0.50;;;23.10;62.70;;;;;;4992546;28;20041;-70
2021/08/25 01:01:02;;;;;;;1.33;0.50;;;23.10;62.10;;;;;;4991220;28;20042;-70
2021/08/25 01:03:45;;;;;;;0.93;0.40;;;23.10;63.10;;;;;;4991182;28;20038;-71
2021/08/25 01:06:15;;;;;;;0.60;0.50;;;23.10;63.80;;;;;;4993612;28;20049;-72
2021/08/25 01:08:41;;;;;;;0.50;0.40;;;23.00;64.70;;;;;;4993659;28;20070;-72
2021/08/25 01:11:08;;;;;;;0.60;0.47;;;23.00;65.40;;;;;;4993942;28;20515;-68
2021/08/25 01:13:36;;;;;;;0.60;0.50;;;;;;;;;;4993671;28;20545;-71
2021/08/25 01:16:02;;;;;;;1.58;0.60;;;22.90;53.70;;;;;;4994030;28;20105;-71
2021/08/25 01:18:28;;;;;;;0.43;0.40;;;22.90;54.80;;;;;;4994172;28;20113;-72
2021/08/25 01:20:56;;;;;;;1.33;0.40;;;22.90;55.00;;;;;;4993568;28;20035;-71
2021/08/25 01:23:22;;;;;;;0.52;0.40;;;22.90;53.80;;;;;;4993757;28;20704;-72
2021/08/25 01:25:52;;;;;;;2.05;0.38;;;22.90;54.00;;;;;;4993860;28;20456;-72
2021/08/25 01:28:22;;;;;;;1.10;0.40;;;22.90;53.80;;;;;;4993396;28;20026;-71
2021/08/25 01:30:49;;;;;;;4.68;0.50;;;22.90;53.70;;;;;;4993739;28;20042;-70
2021/08/25 01:33:22;;;;;;;0.88;0.50;;;22.90;53.50;;;;;;4993694;28;20030;-72
2021/08/25 01:35:48;;;;;;;3.03;0.50;;;22.80;53.20;;;;;;4993182;28;20501;-71
2021/08/25 01:38:45;;;;;;;0.60;0.40;;;23.00;55.20;;;;;;4993349;28;20113;-72
2021/08/25 01:41:11;;;;;;;0.60;0.40;;;22.90;52.70;;;;;;4993673;28;20073;-71
2021/08/25 01:43:37;;;;;;;0.40;0.40;;;22.90;53.00;;;;;;4993301;28;20153;-71
2021/08/25 01:46:02;;;;;;;2.22;0.45;;;22.80;53.10;;;;;;4993418;28;20479;-71
2021/08/25 01:48:30;;;;;;;0.47;0.28;;;22.70;53.50;;;;;;4993527;28;20046;-71
2021/08/25 01:50:55;;;;;;;0.82;0.40;;;22.60;54.10;;;;;;4993285;28;20034;-70
2021/08/25 01:53:21;;;;;;;2.30;0.40;;;22.60;54.20;;;;;;4993466;28;20507;-72
2021/08/25 01:55:47;;;;;;;0.50;0.40;;;22.50;53.80;;;;;;4993600;28;20408;-71
2021/08/25 01:58:12;;;;;;;0.55;0.40;;;22.50;53.80;;;;;;4993186;28;20071;-71
2021/08/25 02:00:38;;;;;;;1.30;0.40;;;22.40;54.20;;;;;;4993395;28;20038;-71
2021/08/25 02:03:04;;;;;;;1.02;0.40;;;22.40;53.30;;;;;;4993620;28;20509;-71
2021/08/25 02:05:30;;;;;;;1.00;0.57;;;;;;;;;;4993144;28;20038;-71
2021/08/25 02:07:59;;;;;;;0.95;0.60;;;22.50;76.00;;;;;;4995317;28;20066;-70
2021/08/25 02:10:25;;;;;;;0.55;0.40;;;;;;;;;;4997151;28;20057;-71
2021/08/25 02:12:50;;;;;;;3.30;0.43;;;22.40;52.50;;;;;;4997215;28;20035;-71
2021/08/25 02:15:16;;;;;;;1.98;0.68;;;22.30;53.10;;;;;;4997338;28;20026;-70
2021/08/25 02:17:42;;;;;;;1.85;0.50;;;22.40;53.80;;;;;;4997024;28;20046;-71
2021/08/25 02:20:08;;;;;;;0.90;0.50;;;22.30;52.90;;;;;;4996968;28;20089;-72
2021/08/25 02:22:34;;;;;;;3.85;0.60;;;22.30;52.40;;;;;;4996772;28;20042;-72
2021/08/25 02:25:00;;;;;;;1.27;0.63;;;22.30;52.10;;;;;;4996973;28;20045;-72
2021/08/25 02:27:25;;;;;;;4.05;0.90;;;22.30;52.50;;;;;;4997099;28;20038;-71
2021/08/25 02:29:55;;;;;;;1.42;0.60;;;22.20;51.80;;;;;;4997118;28;20034;-72
2021/08/25 02:32:25;;;;;;;3.90;0.57;;;22.30;51.70;;;;;;4996937;28;20038;-71
2021/08/25 02:34:50;;;;;;;2.03;0.60;;;22.30;52.20;;;;;;4996674;28;20041;-71
2021/08/25 02:37:16;;;;;;;1.33;0.68;;;22.20;52.70;;;;;;4996923;28;20031;-70
2021/08/25 02:39:43;;;;;;;3.38;0.77;;;22.10;52.30;;;;;;4996942;28;20034;-71
2021/08/25 02:42:08;;;;;;;1.38;0.70;;;22.10;53.20;;;;;;4996624;28;20034;-71
2021/08/25 02:44:34;;;;;;;0.98;0.70;;;22.00;53.00;;;;;;4996907;28;20045;-71
2021/08/25 02:47:00;;;;;;;1.77;0.70;;;22.00;52.80;;;;;;4996595;28;20035;-71
2021/08/25 02:49:25;;;;;;;1.75;0.63;;;22.00;52.70;;;;;;4996431;28;20117;-71
2021/08/25 02:51:51;;;;;;;1.50;0.90;;;21.90;52.40;;;;;;4996657;28;20093;-69
2021/08/25 02:54:17;;;;;;;3.47;0.70;;;21.90;53.20;;;;;;4996574;28;20041;-70
2021/08/25 02:56:42;;;;;;;1.38;0.90;;;21.80;52.30;;;;;;4996417;28;20031;-70
2021/08/25 02:59:08;;;;;;;1.80;1.00;;;21.80;51.80;;;;;;4996506;28;20037;-71
2021/08/25 03:01:34;;;;;;;2.88;1.00;;;21.70;51.60;;;;;;4996540;28;20092;-71
2021/08/25 03:03:59;;;;;;;4.50;1.10;;;21.70;51.60;;;;;;4996187;28;20069;-71
2021/08/25 03:06:25;;;;;;;1.38;0.95;;;21.60;52.30;;;;;;4996321;28;20231;-72
2021/08/25 03:08:51;;;;;;;1.30;1.08;;;21.50;52.00;;;;;;4996150;28;20053;-70
2021/08/25 03:11:16;;;;;;;2.17;1.02;;;21.50;52.70;;;;;;4996210;28;20050;-72
2021/08/25 03:13:42;;;;;;;2.50;1.20;;;21.50;52.00;;;;;;4996241;28;20034;-71
2021/08/25 03:16:09;;;;;;;1.60;1.00;;;21.50;51.50;;;;;;4996598;28;20113;-71
2021/08/25 03:18:35;;;;;;;2.53;1.20;;;21.50;51.40;;;;;;4995530;28;20034;-71
2021/08/25 03:21:01;;;;;;;1.75;1.27;;;21.50;50.80;;;;;;4995845;28;20041;-71
2021/08/25 03:23:26;;;;;;;2.05;1.33;;;21.50;51.60;;;;;;4996016;28;20034;-71
2021/08/25 03:25:53;;;;;;;4.03;1.40;;;21.50;51.40;;;;;;4995948;28;20042;-72
2021/08/25 03:28:19;;;;;;;3.72;1.40;;;21.50;50.30;;;;;;4995719;28;20034;-71
2021/08/25 03:30:44;;;;;;;2.63;1.10;;;21.50;50.30;;;;;;4995652;28;20085;-70
2021/08/25 03:33:10;;;;;;;2.45;1.30;;;21.50;49.80;;;;;;4995612;28;20029;-71
2021/08/25 03:35:36;;;;;;;2.78;1.27;;;21.50;50.00;;;;;;4995819;28;20041;-71
2021/08/25 03:38:02;;;;;;;5.30;1.70;;;21.50;49.90;;;;;;4995799;28;20483;-71
2021/08/25 03:40:28;;;;;;;2.10;1.52;;;21.50;50.20;;;;;;4995688;28;20487;-71
2021/08/25 03:42:54;;;;;;;2.17;1.48;;;21.50;49.80;;;;;;4995623;28;20038;-70
2021/08/25 03:45:20;;;;;;;2.72;1.42;;;21.40;50.60;;;;;;4995572;28;20074;-72
2021/08/25 03:47:45;;;;;;;3.63;1.70;;;21.50;49.80;;;;;;4995288;28;20085;-69
2021/08/25 03:50:11;;;;;;;5.28;1.35;;;21.50;49.60;;;;;;4995199;28;20038;-70
2021/08/25 03:52:36;;;;;;;1.70;1.40;;;21.50;50.20;;;;;;4995525;28;20487;-71
2021/08/25 03:55:02;;;;;;;1.92;1.55;;;21.50;49.60;;;;;;4995343;28;20105;-71
2021/08/25 03:57:28;;;;;;;2.30;1.83;;;21.50;50.00;;;;;;4977910;28;20027;-71
2021/08/25 03:59:54;;;;;;;5.93;1.98;;;21.40;49.20;;;;;;4995480;28;20034;-70
2021/08/25 04:02:19;;;;;;;2.45;1.33;;;21.50;48.80;;;;;;4995183;28;20391;-72
2021/08/25 04:04:45;;;;;;;4.35;1.73;;;21.50;48.70;;;;;;4995185;28;20053;-72
2021/08/25 04:07:12;;;;;;;2.80;1.70;;;21.50;48.30;;;;;;4995252;28;20029;-71
2021/08/25 04:09:38;;;;;;;3.47;2.00;;;21.50;48.20;;;;;;4995083;28;20069;-72
2021/08/25 04:12:04;;;;;;;3.97;1.92;;;21.50;49.00;;;;;;4995134;28;20022;-70
2021/08/25 04:14:29;;;;;;;2.85;1.85;;;21.50;48.20;;;;;;4994758;28;20054;-71
2021/08/25 04:16:55;;;;;;;7.93;1.83;;;21.60;47.70;;;;;;4995154;28;20109;-71
2021/08/25 04:19:21;;;;;;;4.10;2.00;;;21.50;48.00;;;;;;4995232;28;20478;-70
2021/08/25 04:21:46;;;;;;;4.03;2.00;;;21.50;47.80;;;;;;4994964;28;20046;-71
2021/08/25 04:24:12;;;;;;;3.13;1.80;;;21.50;48.00;;;;;;4994983;28;20093;-67
2021/08/25 04:26:38;;;;;;;2.90;1.67;;;21.40;47.80;;;;;;4977484;28;20120;-71
2021/08/25 04:29:03;;;;;;;3.55;1.83;;;21.40;48.60;;;;;;4995018;28;20034;-71
2021/08/25 04:31:29;;;;;;;2.95;1.95;;;21.50;48.30;;;;;;4994527;28;20027;-71
2021/08/25 04:33:55;;;;;;;2.65;2.00;;;21.40;47.70;;;;;;4994693;28;20042;-71
2021/08/25 04:36:20;;;;;;;2.00;1.73;;;21.40;47.90;;;;;;4994673;28;20039;-71
2021/08/25 04:38:46;;;;;;;3.53;2.20;;;21.40;47.90;;;;;;4994509;28;20037;-70
2021/08/25 04:41:11;;;;;;;5.78;2.22;;;21.40;47.80;;;;;;4994701;28;20088;-70
2021/08/25 04:43:37;;;;;;;4.30;2.50;;;21.40;48.20;;;;;;4994726;28;20113;-71
2021/08/25 04:46:03;;;;;;;3.40;2.20;;;21.40;47.60;;;;;;4994520;28;20042;-72
2021/08/25 04:48:29;;;;;;;2.33;2.00;;;21.40;47.60;;;;;;4994351;28;20537;-70
2021/08/25 04:50:54;;;;;;;4.30;2.00;;;21.40;47.20;;;;;;4994372;28;20031;-70
2021/08/25 04:53:20;;;;;;;4.03;2.30;;;21.40;46.90;;;;;;4994492;28;20042;-71
2021/08/25 04:55:46;;;;;;;3.38;2.10;;;21.50;46.60;;;;;;4994535;28;20041;-71
2021/08/25 04:58:12;;;;;;;3.40;2.33;;;21.50;46.80;;;;;;4994204;28;20121;-72
2021/08/25 05:00:37;;;;;;;3.33;2.33;;;21.50;47.00;;;;;;4993911;28;20482;-71
2021/08/25 05:03:03;;;;;;;3.95;2.55;;;21.50;46.70;;;;;;4994331;28;20037;-71
2021/08/25 05:05:29;;;;;;;4.30;2.17;;;21.50;46.70;;;;;;4994047;28;20053;-71
2021/08/25 05:07:54;;;;;;;2.60;1.98;;;21.50;46.80;;;;;;4994213;28;20052;-72
2021/08/25 05:10:20;;;;;;;5.60;2.00;;;21.40;47.00;;;;;;4994056;28;20062;-71
2021/08/25 05:12:46;;;;;;;3.00;2.17;;;21.40;46.80;;;;;;4994006;28;20052;-71
2021/08/25 05:15:12;;;;;;;5.50;1.98;;;;;;;;;;4994025;28;20046;-71
2021/08/25 05:17:38;;;;;;;3.45;2.30;;;21.40;46.50;;;;;;4994120;28;20045;-70
2021/08/25 05:20:06;;;;;;;2.65;2.00;;;21.40;46.70;;;;;;4993997;28;20027;-70
2021/08/25 05:22:33;;;;;;;2.97;2.20;;;21.30;46.50;;;;;;4993805;28;20089;-71
2021/08/25 05:24:58;;;;;;;4.47;2.10;;;21.30;47.40;;;;;;4993684;28;20046;-70
2021/08/25 05:27:25;;;;;;;3.08;2.53;;;21.40;46.70;;;;;;4993731;28;20098;-71
2021/08/25 05:29:51;;;;;;;5.20;2.42;;;21.30;47.40;;;;;;4993690;28;20122;-71
2021/08/25 05:32:17;;;;;;;3.28;2.08;;;21.30;46.60;;;;;;4976405;28;20057;-71
2021/08/25 05:34:43;;;;;;;3.28;2.25;;;21.30;47.10;;;;;;4993875;28;20109;-70
2021/08/25 05:37:08;;;;;;;3.45;2.10;;;21.30;48.10;;;;;;4993738;28;20117;-70
2021/08/25 05:39:34;;;;;;;5.82;2.22;;;21.40;46.90;;;;;;4993927;28;20035;-70
2021/08/25 05:42:00;;;;;;;2.95;2.10;;;21.40;46.90;;;;;;4995050;28;20113;-71
2021/08/25 05:44:25;;;;;;;4.68;2.35;;;21.40;46.90;;;;;;5000157;28;20038;-71
2021/08/25 05:46:51;;;;;;;5.45;2.50;;;21.30;47.80;;;;;;5000409;28;20034;-71
2021/08/25 05:49:17;;;;;;;5.13;2.22;;;21.30;47.30;;;;;;5000245;28;20049;-70
2021/08/25 05:51:42;;;;;;;3.45;2.35;;;21.40;47.10;;;;;;5000319;28;20041;-72
2021/08/25 05:54:13;;;;;;;2.85;2.28;;;21.40;46.70;;;;;;5000367;28;20627;-71
2021/08/25 05:56:39;;;;;;;3.78;2.50;;;21.40;46.60;;;;;;5000176;28;20038;-71
2021/08/25 05:59:05;;;;;;;3.72;2.50;;;21.40;46.80;;;;;;4999941;28;20494;-70
2021/08/25 06:01:31;;;;;;;4.32;2.85;;;21.40;46.90;;;;;;5000108;28;20062;-66
2021/08/25 06:03:57;;;;;;;3.72;1.98;;;21.50;46.50;;;;;;4999994;28;20077;-71
2021/08/25 06:06:34;;;;;;;2.95;2.33;;;21.40;46.70;;;;;;5000088;28;20039;-70
2021/08/25 06:09:00;;;;;;;4.07;2.40;;;21.40;47.20;;;;;;4982397;28;20491;-71
2021/08/25 06:11:26;;;;;;;5.13;2.08;;;21.40;47.20;;;;;;5000059;28;20073;-71
2021/08/25 06:13:52;;;;;;;3.22;2.00;;;21.40;46.50;;;;;;5000083;28;20434;-71
2021/08/25 06:16:17;;;;;;;4.78;2.53;;;21.40;47.10;;;;;;5000205;28;20426;-71
2021/08/25 06:18:43;;;;;;;5.53;2.55;;;21.40;47.50;;;;;;5000051;28;20034;-71
2021/08/25 06:21:14;;;;;;;6.85;2.42;;;21.40;46.90;;;;;;4999828;28;20034;-71
2021/08/25 06:23:40;;;;;;;3.80;2.40;;;21.40;46.80;;;;;;4999563;28;20118;-71
2021/08/25 06:26:05;;;;;;;4.25;2.20;;;21.30;46.60;;;;;;4999724;28;20121;-71
2021/08/25 06:28:31;;;;;;;4.32;2.25;;;21.40;47.20;;;;;;4999893;28;20106;-71
2021/08/25 06:30:57;;;;;;;7.05;2.50;;;21.40;47.50;;;;;;4999824;28;20416;-71
2021/08/25 06:33:22;;;;;;;4.25;2.35;;;21.40;47.10;;;;;;4999837;28;20045;-71
2021/08/25 06:35:48;;;;;;;6.25;2.35;;;21.40;47.30;;;;;;4999977;28;20065;-70
2021/08/25 06:38:13;;;;;;;3.95;2.30;;;21.50;47.80;;;;;;4999724;28;20049;-71
2021/08/25 06:40:39;;;;;;;5.00;2.00;;;21.60;46.80;;;;;;4999839;28;20031;-69
2021/08/25 06:43:05;;;;;;;4.20;2.30;;;21.50;47.20;;;;;;4999805;28;20530;-71
2021/08/25 06:45:30;;;;;;;3.25;2.30;;;21.60;46.90;;;;;;5000091;28;20050;-71
2021/08/25 06:47:56;;;;;;;4.03;1.98;;;21.70;46.60;;;;;;4999918;28;20033;-71
2021/08/25 06:50:22;;;;;;;4.78;2.40;;;21.70;46.30;;;;;;4999639;28;20038;-71
2021/08/25 06:52:47;;;;;;;2.50;1.83;;;21.70;46.70;;;;;;4999622;28;20089;-71
2021/08/25 06:55:13;;;;;;;7.05;2.38;;;21.70;46.20;;;;;;4996747;28;20506;-72
2021/08/25 06:57:39;;;;;;;3.30;2.30;;;21.70;46.70;;;;;;4996538;28;20399;-71
2021/08/25 07:00:05;;;;;;;2.58;2.08;;;21.80;46.90;;;;;;4996362;28;20097;-70
2021/08/25 07:02:31;;;;;;;2.83;2.00;;;21.80;46.30;;;;;;4996317;28;20138;-71
2021/08/25 07:04:57;;;;;;;3.15;2.20;;;21.90;46.40;;;;;;4996556;28;20050;-71
2021/08/25 07:07:22;;;;;;;3.55;2.35;;;21.90;46.40;;;;;;4996241;28;20101;-71
2021/08/25 07:09:48;;;;;;;2.70;1.95;;;22.00;45.80;;;;;;4996037;28;20141;-71
2021/08/25 07:12:14;;;;;;;2.90;2.10;;;22.00;46.90;;;;;;4996390;28;20066;-71
2021/08/25 07:14:39;;;;;;;3.42;1.98;;;22.10;46.20;;;;;;4996095;28;20035;-71
2021/08/25 07:17:05;;;;;;;2.22;1.88;;;22.10;45.90;;;;;;4996400;28;20031;-71
2021/08/25 07:19:31;;;;;;;5.97;2.35;;;22.20;46.30;;;;;;4996070;28;20035;-71
2021/08/25 07:21:57;;;;;;;3.42;2.20;;;22.10;45.60;;;;;;4996165;28;20072;-70
2021/08/25 07:24:22;;;;;;;4.65;1.90;;;22.10;46.30;;;;;;4995786;28;20042;-71
2021/08/25 07:26:48;;;;;;;3.70;2.25;;;22.10;46.70;;;;;;4995878;28;20041;-71
2021/08/25 07:29:14;;;;;;;2.97;2.10;;;22.20;45.90;;;;;;4996206;28;20109;-70
2021/08/25 07:31:39;;;;;;;2.40;2.05;;;22.30;46.00;;;;;;4996031;28;20034;-71
2021/08/25 07:34:05;;;;;;;4.03;1.90;;;22.30;45.40;;;;;;4996032;28;20023;-70
2021/08/25 07:36:31;;;;;;;3.05;2.22;;;22.30;46.00;;;;;;4995731;28;20466;-71
2021/08/25 07:38:56;;;;;;;5.95;2.42;;;22.40;46.00;;;;;;4995707;28;20041;-70
2021/08/25 07:41:22;;;;;;;3.63;2.25;;;22.50;46.00;;;;;;4995572;28;20042;-71
2021/08/25 07:43:48;;;;;;;5.93;2.00;;;22.50;45.40;;;;;;4995545;28;20058;-70
2021/08/25 07:46:13;;;;;;;5.43;1.83;;;22.50;46.10;;;;;;4995770;28;20479;-71
2021/08/25 07:48:39;;;;;;;6.07;2.15;;;;;;;;;;4995616;28;20085;-71
2021/08/25 07:51:09;;;;;;;3.25;2.10;;;22.60;45.20;;;;;;4995408;28;20165;-71
2021/08/25 07:53:38;;;;;;;2.45;1.92;;;22.60;45.50;;;;;;4995464;28;20030;-71
2021/08/25 07:56:05;;;;;;;6.38;2.53;;;22.60;45.50;;;;;;4995628;28;20479;-71
2021/08/25 07:58:31;;;;;;;4.22;2.08;;;22.60;45.60;;;;;;4995526;28;20483;-71
2021/08/25 08:00:57;;;;;;;3.90;2.03;;;22.70;45.20;;;;;;4995278;28;20043;-71
2021/08/25 08:03:23;;;;;;;2.90;2.00;;;;;;;;;;4995421;28;20122;-72
2021/08/25 08:05:49;;;;;;;2.92;1.92;;;22.90;44.30;;;;;;4994716;28;20398;-71
2021/08/25 08:08:15;;;;;;;3.88;2.00;;;22.90;45.50;;;;;;4994987;28;20113;-70
2021/08/25 08:10:41;;;;;;;3.38;2.20;;;23.00;45.00;;;;;;4995076;28;20110;-72
2021/08/25 08:13:07;;;;;;;4.60;1.92;;;23.10;44.90;;;;;;4993827;28;20034;-71
2021/08/25 08:15:33;;;;;;;4.82;2.20;;;23.10;44.90;;;;;;4995377;28;20089;-71
2021/08/25 08:18:07;;;;;;;5.20;2.00;;;23.20;44.20;;;;;;4994897;28;20045;-71
2021/08/25 08:20:33;;;;;;;2.45;1.77;;;23.20;44.30;;;;;;4994780;28;20041;-66
2021/08/25 08:22:59;;;;;;;5.72;2.08;;;23.20;45.00;;;;;;4995235;28;20042;-66
2021/08/25 08:25:24;;;;;;;5.07;2.05;;;23.30;43.50;;;;;;4994860;28;20065;-66
2021/08/25 08:27:50;;;;;;;4.28;1.90;;;23.30;43.80;;;;;;4994943;28;20390;-66
2021/08/25 08:30:15;;;;;;;3.33;1.67;;;23.30;43.90;;;;;;4994871;28;20482;-66
2021/08/25 08:32:41;;;;;;;4.90;2.38;;;23.40;44.50;;;;;;4994817;28;20037;-66
2021/08/25 08:35:07;;;;;;;3.95;2.03;;;23.40;43.80;;;;;;4994714;28;20546;-66
2021/08/25 08:37:33;;;;;;;2.75;1.92;;;23.40;44.10;;;;;;4995165;28;20479;-66
2021/08/25 08:39:59;;;;;;;3.20;1.98;;;23.50;43.60;;;;;;4994705;28;20035;-65
2021/08/25 08:42:26;;;;;;;2.22;1.77;;;23.60;44.40;;;;;;4994973;28;20041;-65
2021/08/25 08:44:55;;;;;;;6.82;1.83;;;23.60;43.10;;;;;;4994526;28;20042;-65
2021/08/25 08:47:23;;;;;;;3.17;2.00;;;23.60;42.60;;;;;;4994422;28;20038;-65
2021/08/25 08:49:51;;;;;;;5.18;1.67;;;23.70;44.10;;;;;;4994910;28;20426;-65
2021/08/25 08:52:18;;;;;;;3.70;1.75;;;23.70;42.80;;;;;;4994237;28;20080;-65
2021/08/25 08:54:44;;;;;;;2.38;1.63;;;23.80;44.30;;;;;;4994406;28;20073;-66
2021/08/25 08:57:09;;;;;;;3.65;1.90;;;23.90;42.70;;;;;;4994512;28;20062;-66
2021/08/25 08:59:35;;;;;;;5.85;1.60;;;24.00;43.30;;;;;;4994537;28;20085;-65
2021/08/25 09:02:00;;;;;;;4.43;2.10;;;24.00;42.50;;;;;;4994058;28;20034;-66
2021/08/25 09:04:34;;;;;;;3.40;1.58;;;24.20;42.30;;;;;;4994301;28;20105;-65
2021/08/25 09:06:59;;;;;;;2.75;1.90;;;24.20;43.10;;;;;;4994173;28;20038;-66
2021/08/25 09:09:25;;;;;;;1.90;1.50;;;24.30;43.10;;;;;;4994346;28;20096;-66
2021/08/25 09:11:53;;;;;;;2.67;1.92;;;24.40;42.50;;;;;;4994446;28;20034;-66
2021/08/25 09:14:19;;;;;;;4.60;1.80;;;24.40;40.60;;;;;;4993988;28;20030;-66
2021/08/25 09:16:45;;;;;;;3.65;1.70;;;24.40;41.70;;;;;;4993554;28;20038;-65
2021/08/25 09:19:21;;;;;;;2.42;1.70;;;24.40;41.50;;;;;;4993898;28;20039;-67
2021/08/25 09:21:52;;;;;;;2.80;1.70;;;24.40;40.50;;;;;;4994198;28;20038;-66
2021/08/25 09:24:39;;;;;;;2.40;1.70;;;24.50;42.90;;;;;;4993768;28;20054;-66
2021/08/25 09:27:07;;;;;;;2.70;1.65;;;24.60;43.00;;;;;;4993996;28;20081;-66
2021/08/25 09:29:33;;;;;;;3.28;1.80;;;24.80;41.90;;;;;;4993614;28;20042;-68
2021/08/25 09:31:59;;;;;;;5.80;1.90;;;24.90;42.50;;;;;;4994069;28;20027;-66
2021/08/25 09:34:30;;;;;;;2.65;1.90;;;25.00;40.40;;;;;;4993892;28;20471;-65
2021/08/25 09:37:09;;;;;;;2.60;2.00;;;25.00;41.40;;;;;;4993892;28;20460;-65
2021/08/25 09:39:40;;;;;;;3.53;1.92;;;25.10;41.50;;;;;;4993621;28;20038;-66
2021/08/25 09:42:06;;;;;;;3.17;2.03;;;25.20;40.70;;;;;;4993711;28;20112;-69
2021/08/25 09:44:31;;;;;;;3.25;1.95;;;25.30;39.70;;;;;;4976373;28;20484;-67
2021/08/25 09:46:57;;;;;;;3.53;2.22;;;25.30;40.40;;;;;;4993664;28;20117;-66
2021/08/25 09:49:23;;;;;;;5.25;2.10;;;25.40;39.00;;;;;;4993592;28;20096;-68
2021/08/25 09:51:51;;;;;;;2.75;1.95;;;;;;;;;;4993721;28;20042;-66
2021/08/25 09:54:18;;;;;;;5.20;2.67;;;25.40;38.70;;;;;;4993590;28;20586;-67
2021/08/25 09:56:44;;;;;;;5.80;2.45;;;25.50;40.00;;;;;;4993632;28;20050;-65
2021/08/25 09:59:13;;;;;;;2.95;2.15;;;25.60;40.30;;;;;;4993564;28;20043;-66
2021/08/25 10:01:41;;;;;;;2.83;2.25;;;25.70;39.30;;;;;;4993684;28;20426;-66
2021/08/25 10:04:09;;;;;;;3.53;2.00;;;25.80;39.20;;;;;;4993645;28;20431;-66
2021/08/25 10:06:37;;;;;;;3.67;2.22;;;25.90;39.00;;;;;;4993644;28;20039;-67
2021/08/25 10:09:06;;;;;;;3.95;2.15;;;25.90;39.50;;;;;;4993479;28;20474;-67
2021/08/25 10:11:33;;;;;;;3.28;2.42;;;26.10;39.70;;;;;;4993332;28;20062;-66
2021/08/25 10:14:05;;;;;;;3.15;2.28;;;26.10;38.60;;;;;;4993616;28;20470;-66
2021/08/25 10:16:44;;;;;;;5.60;2.08;;;26.10;38.20;;;;;;4993488;28;20089;-66
2021/08/25 10:19:41;;;;;;;5.93;2.00;;;26.20;38.80;;;;;;4993619;28;20065;-66
2021/08/25 10:22:10;;;;;;;2.53;1.83;;;26.20;38.80;;;;;;4993140;28;20061;-67
2021/08/25 10:25:02;;;;;;;2.58;1.88;;;26.40;39.20;;;;;;4993524;28;20046;-65
2021/08/25 10:27:32;;;;;;;;;;;26.60;39.10;;;;;;4976518;28;20510;-67
2021/08/25 10:30:01;;;;;;;2.75;1.80;;;26.70;39.10;;;;;;4996643;28;20393;-66
2021/08/25 10:32:33;;;;;;;3.50;2.10;;;26.80;37.30;;;;;;4996899;28;20424;-68
2021/08/25 10:35:11;;;;;;;3.35;2.20;;;26.80;38.20;;;;;;4996755;28;20037;-66
2021/08/25 10:37:37;;;;;;;3.83;2.17;;;26.80;38.00;;;;;;4997209;28;20499;-67
2021/08/25 10:40:05;;;;;;;3.30;1.80;;;26.90;38.30;;;;;;4997030;28;20064;-66
2021/08/25 10:42:55;;;;;;;3.17;2.20;;;26.90;37.60;;;;;;4996742;28;20494;-68
2021/08/25 10:45:50;;;;;;;2.40;2.00;;;26.90;37.50;;;;;;4996942;28;20076;-67
2021/08/25 10:48:16;;;;;;;4.22;2.10;;;26.80;37.20;;;;;;4996677;28;20030;-65
2021/08/25 10:50:55;;;;;;;5.82;2.20;;;26.70;36.80;;;;;;4996610;28;20077;-67
2021/08/25 10:53:30;;;;;;;2.25;2.00;;;26.70;36.90;;;;;;4996520;28;20037;-66
2021/08/25 10:56:08;;;;;;;4.88;2.42;;;26.70;37.00;;;;;;4996701;28;20447;-68
2021/08/25 10:58:52;;;;;;;4.78;2.17;;;26.60;37.50;;;;;;4996765;28;20053;-65
2021/08/25 11:01:29;;;;;;;6.15;2.40;;;26.60;37.00;;;;;;4996552;28;20487;-67
2021/08/25 11:04:16;;;;;;;3.63;2.60;;;26.70;37.20;;;;;;4996095;28;20022;-66
2021/08/25 11:06:52;;;;;;;6.45;2.35;;;26.70;37.20;;;;;;4995867;28;20155;-68
2021/08/25 11:09:19;;;;;;;3.78;2.85;;;26.70;37.30;;;;;;4996050;28;20089;-67
2021/08/25 11:11:47;;;;;;;4.75;2.85;;;26.80;37.40;;;;;;4996190;28;20062;-71
2021/08/25 11:14:29;;;;;;;6.88;3.10;;;26.90;37.00;;;;;;4996186;28;20036;-67
2021/08/25 11:17:10;;;;;;;5.90;2.33;;;26.80;37.00;;;;;;4996625;28;20065;-65
2021/08/25 11:19:48;;;;;;;2.30;2.00;;;26.90;36.50;;;;;;4996379;28;20449;-66
2021/08/25 11:22:26;;;;;;;5.93;2.22;;;26.80;37.10;;;;;;4996344;28;20065;-66
2021/08/25 11:25:01;;;;;;;3.42;2.08;;;26.80;36.70;;;;;;4978594;28;20491;-67
2021/08/25 11:27:36;;;;;;;4.38;2.50;;;26.80;37.00;;;;;;4978989;28;20030;-70
2021/08/25 11:30:21;;;;;;;2.85;2.30;;;26.90;36.10;;;;;;4995860;28;20034;-66
2021/08/25 11:32:56;;;;;;;4.22;2.58;;;26.90;36.30;;;;;;4995871;28;20104;-66
2021/08/25 11:35:27;;;;;;;3.17;2.35;;;27.10;37.50;;;;;;4995860;28;20471;-66
2021/08/25 11:38:02;;;;;;;5.93;2.30;;;27.10;36.50;;;;;;4996278;28;20383;-65
2021/08/25 11:40:30;;;;;;;4.68;2.40;;;27.20;36.20;;;;;;4994708;28;20038;-69
2021/08/25 11:43:02;;;;;;;5.60;2.10;;;27.20;35.80;;;;;;4994227;28;20045;-67
2021/08/25 11:45:28;;;;;;;2.88;2.20;;;27.20;35.30;;;;;;4995630;28;20049;-66
2021/08/25 11:47:56;;;;;;;6.22;2.60;;;27.10;34.60;;;;;;4995615;28;20081;-66
2021/08/25 11:50:25;;;;;;;6.47;2.72;;;27.10;34.20;;;;;;4995624;28;20038;-70
2021/08/25 11:52:52;;;;;;;3.67;2.67;;;27.10;35.30;;;;;;4995399;28;20038;-66
2021/08/25 11:55:19;;;;;;;3.75;2.38;;;27.10;35.10;;;;;;4995523;28;20406;-65
2021/08/25 11:57:51;;;;;;;2.70;2.15;;;27.20;35.80;;;;;;4995522;28;20054;-66
2021/08/25 12:00:20;;;;;;;4.30;2.40;;;27.20;35.00;;;;;;4995278;28;20039;-66
2021/08/25 12:03:03;;;;;;;3.80;2.67;;;27.30;35.10;;;;;;4995263;28;20042;-66
2021/08/25 12:05:28;;;;;;;4.18;2.70;;;27.40;35.40;;;;;;4995407;28;20042;-66
2021/08/25 12:08:13;;;;;;;4.63;2.30;;;27.50;35.70;;;;;;4995297;28;20041;-66
2021/08/25 12:10:40;;;;;;;4.47;2.53;;;27.60;35.80;;;;;;4995630;28;20073;-66
2021/08/25 12:13:08;;;;;;;3.13;2.35;;;27.70;35.40;;;;;;4995376;28;20034;-66
2021/08/25 12:15:51;;;;;;;4.63;2.47;;;27.80;35.70;;;;;;4994804;28;20041;-66
2021/08/25 12:18:29;;;;;;;5.68;2.40;;;27.90;35.80;;;;;;4995240;28;20042;-68
2021/08/25 12:21:06;;;;;;;3.45;2.50;;;27.90;35.30;;;;;;4995239;28;20495;-69
2021/08/25 12:23:32;;;;;;;4.10;2.53;;;27.90;35.00;;;;;;4994885;28;20470;-67
2021/08/25 12:25:58;;;;;;;3.58;2.70;;;27.90;34.60;;;;;;4994875;28;20109;-65
2021/08/25 12:28:43;;;;;;;8.93;2.78;;;27.90;34.80;;;;;;4994857;28;20045;-69
2021/08/25 12:31:09;;;;;;;4.43;2.35;;;28.00;35.10;;;;;;4994837;28;20038;-65
2021/08/25 12:33:35;;;;;;;13.40;2.83;;;28.00;35.30;;;;;;4993594;28;20125;-66
2021/08/25 12:36:22;;;;;;;3.67;2.90;;;28.00;34.30;;;;;;4994746;28;20080;-66
2021/08/25 12:38:49;;;;;;;6.45;2.67;;;28.00;35.10;;;;;;4994544;28;20053;-66
2021/08/25 12:41:16;;;;;;;4.07;2.47;;;28.10;34.70;;;;;;4994816;28;20374;-65
2021/08/25 12:43:42;;;;;;;5.80;2.70;;;28.20;33.90;;;;;;4994479;28;20057;-70
2021/08/25 12:46:08;;;;;;;3.35;2.60;;;28.30;34.30;;;;;;4994509;28;20034;-66
2021/08/25 12:48:34;;;;;;;7.05;2.83;;;28.30;34.80;;;;;;4994502;28;20037;-67
2021/08/25 12:50:59;;;;;;;4.35;2.70;;;28.30;34.70;;;;;;4994283;28;20038;-67
2021/08/25 12:53:25;;;;;;;2.95;2.60;;;28.40;34.30;;;;;;4994665;28;20104;-66
2021/08/25 12:55:51;;;;;;;9.15;2.67;;;28.40;34.10;;;;;;4994475;28;20049;-67